sensor_id;sensor_type;location;lat;lon;timestamp;pressure;altitude;pressure_sealevel;temperature
18713;BMP280;9485;49.386;8.674;2023-02-21T00:02:36;100963.56;;;10.50
18713;BMP280;9485;49.386;8.674;2023-02-21T00:08:16;100944.84;;;10.39
18713;BMP280;9485;49.386;8.674;2023-02-21T00:13:54;100961.47;;;10.37
18713;BMP280;9485;49.386;8.674;2023-02-21T00:19:33;100959.69;;;10.25
18713;BMP280;9485;49.386;8.674;2023-02-21T00:25:12;100941.94;;;10.10
18713;BMP280;9485;49.386;8.674;2023-02-21T00:30:51;100934.00;;;9.99
18713;BMP280;9485;49.386;8.674;2023-02-21T00:36:29;100927.88;;;10.01
18713;BMP280;9485;49.386;8.674;2023-02-21T00:42:09;100940.38;;;10.09
18713;BMP280;9485;49.386;8.674;2023-02-21T00:47:48;100937.91;;;10.02
18713;BMP280;9485;49.386;8.674;2023-02-21T00:53:26;100928.09;;;9.88
18713;BMP280;9485;49.386;8.674;2023-02-21T00:59:06;100927.25;;;9.73
18713;BMP280;9485;49.386;8.674;2023-02-21T01:04:44;100922.59;;;9.62
18713;BMP280;9485;49.386;8.674;2023-02-21T01:10:23;100927.69;;;9.49
18713;BMP280;9485;49.386;8.674;2023-02-21T01:16:05;100915.84;;;9.36
18713;BMP280;9485;49.386;8.674;2023-02-21T01:21:44;100919.47;;;9.27
18713;BMP280;9485;49.386;8.674;2023-02-21T01:27:22;100917.16;;;9.17
18713;BMP280;9485;49.386;8.674;2023-02-21T01:33:03;100924.41;;;9.09
18713;BMP280;9485;49.386;8.674;2023-02-21T01:38:41;100923.97;;;9.01
18713;BMP280;9485;49.386;8.674;2023-02-21T01:44:35;100924.28;;;8.95
18713;BMP280;9485;49.386;8.674;2023-02-21T01:50:21;100925.88;;;8.87
18713;BMP280;9485;49.386;8.674;2023-02-21T01:56:01;100906.47;;;8.80
18713;BMP280;9485;49.386;8.674;2023-02-21T02:01:45;100913.53;;;8.75
18713;BMP280;9485;49.386;8.674;2023-02-21T02:07:26;100916.19;;;8.70
18713;BMP280;9485;49.386;8.674;2023-02-21T02:13:34;100904.94;;;8.61
18713;BMP280;9485;49.386;8.674;2023-02-21T02:19:54;100900.44;;;8.54
18713;BMP280;9485;49.386;8.674;2023-02-21T02:25:43;100908.72;;;8.49
18713;BMP280;9485;49.386;8.674;2023-02-21T02:31:48;100895.13;;;8.38
18713;BMP280;9485;49.386;8.674;2023-02-21T02:37:21;100899.97;;;8.38
18713;BMP280;9485;49.386;8.674;2023-02-21T02:42:56;100896.53;;;8.34
18713;BMP280;9485;49.386;8.674;2023-02-21T02:48:28;100887.94;;;8.28
18713;BMP280;9485;49.386;8.674;2023-02-21T02:53:51;100903.72;;;8.26
18713;BMP280;9485;49.386;8.674;2023-02-21T02:59:17;100893.25;;;8.26
18713;BMP280;9485;49.386;8.674;2023-02-21T03:05:02;100889.66;;;8.26
18713;BMP280;9485;49.386;8.674;2023-02-21T03:10:43;100883.09;;;8.20
18713;BMP280;9485;49.386;8.674;2023-02-21T03:16:14;100891.69;;;8.25
18713;BMP280;9485;49.386;8.674;2023-02-21T03:21:41;100891.69;;;8.25
18713;BMP280;9485;49.386;8.674;2023-02-21T03:27:07;100893.72;;;8.34
18713;BMP280;9485;49.386;8.674;2023-02-21T03:32:38;100891.22;;;8.36
18713;BMP280;9485;49.386;8.674;2023-02-21T03:38:00;100887.78;;;8.32
18713;BMP280;9485;49.386;8.674;2023-02-21T03:43:22;100885.44;;;8.22
18713;BMP280;9485;49.386;8.674;2023-02-21T03:48:50;100898.09;;;8.17
18713;BMP280;9485;49.386;8.674;2023-02-21T03:54:16;100899.81;;;8.23
18713;BMP280;9485;49.386;8.674;2023-02-21T03:59:43;100891.81;;;8.40
18713;BMP280;9485;49.386;8.674;2023-02-21T04:05:07;100897.59;;;8.54
18713;BMP280;9485;49.386;8.674;2023-02-21T04:10:28;100878.97;;;8.66
18713;BMP280;9485;49.386;8.674;2023-02-21T04:15:51;100885.22;;;8.70
18713;BMP280;9485;49.386;8.674;2023-02-21T04:21:16;100883.50;;;8.72
18713;BMP280;9485;49.386;8.674;2023-02-21T04:26:37;100878.66;;;8.73
18713;BMP280;9485;49.386;8.674;2023-02-21T04:31:59;100890.19;;;8.84
18713;BMP280;9485;49.386;8.674;2023-02-21T04:37:22;100878.59;;;8.91
18713;BMP280;9485;49.386;8.674;2023-02-21T04:42:43;100882.50;;;8.93
18713;BMP280;9485;49.386;8.674;2023-02-21T04:48:06;100871.44;;;8.81
18713;BMP280;9485;49.386;8.674;2023-02-21T04:53:26;100880.66;;;8.81
18713;BMP280;9485;49.386;8.674;2023-02-21T04:58:48;100870.16;;;8.82
18713;BMP280;9485;49.386;8.674;2023-02-21T05:04:11;100873.13;;;8.87
18713;BMP280;9485;49.386;8.674;2023-02-21T05:09:32;100875.97;;;8.78
18713;BMP280;9485;49.386;8.674;2023-02-21T05:14:52;100870.22;;;8.73
18713;BMP280;9485;49.386;8.674;2023-02-21T05:20:14;100867.84;;;8.71
18713;BMP280;9485;49.386;8.674;2023-02-21T05:25:35;100869.91;;;8.71
18713;BMP280;9485;49.386;8.674;2023-02-21T05:30:56;100866.75;;;8.69
18713;BMP280;9485;49.386;8.674;2023-02-21T05:36:18;100877.72;;;8.67
18713;BMP280;9485;49.386;8.674;2023-02-21T05:41:46;100867.72;;;8.66
18713;BMP280;9485;49.386;8.674;2023-02-21T05:47:07;100882.56;;;8.57
18713;BMP280;9485;49.386;8.674;2023-02-21T05:52:30;100890.56;;;8.50
18713;BMP280;9485;49.386;8.674;2023-02-21T05:57:51;100881.22;;;8.35
18713;BMP280;9485;49.386;8.674;2023-02-21T06:03:11;100891.22;;;8.27
18713;BMP280;9485;49.386;8.674;2023-02-21T06:08:44;100890.56;;;8.14
18713;BMP280;9485;49.386;8.674;2023-02-21T06:14:12;100894.78;;;8.01
18713;BMP280;9485;49.386;8.674;2023-02-21T06:19:33;100896.00;;;7.91
18713;BMP280;9485;49.386;8.674;2023-02-21T06:24:55;100893.66;;;7.80
18713;BMP280;9485;49.386;8.674;2023-02-21T06:30:16;100889.41;;;7.67
18713;BMP280;9485;49.386;8.674;2023-02-21T06:35:36;100889.25;;;7.61
18713;BMP280;9485;49.386;8.674;2023-02-21T06:40:59;100886.28;;;7.56
18713;BMP280;9485;49.386;8.674;2023-02-21T06:46:23;100884.84;;;7.51
18713;BMP280;9485;49.386;8.674;2023-02-21T06:51:44;100886.72;;;7.45
18713;BMP280;9485;49.386;8.674;2023-02-21T06:57:06;100880.31;;;7.45
18713;BMP280;9485;49.386;8.674;2023-02-21T07:02:26;100894.38;;;7.45
18713;BMP280;9485;49.386;8.674;2023-02-21T07:07:47;100892.31;;;7.45
18713;BMP280;9485;49.386;8.674;2023-02-21T07:13:10;100896.56;;;7.50
18713;BMP280;9485;49.386;8.674;2023-02-21T07:18:31;100894.22;;;7.57
18713;BMP280;9485;49.386;8.674;2023-02-21T07:23:51;100882.84;;;7.61
18713;BMP280;9485;49.386;8.674;2023-02-21T07:29:13;100878.00;;;7.70
18713;BMP280;9485;49.386;8.674;2023-02-21T07:34:35;100887.59;;;8.00
18713;BMP280;9485;49.386;8.674;2023-02-21T07:39:56;100882.63;;;8.30
18713;BMP280;9485;49.386;8.674;2023-02-21T07:45:18;100872.72;;;8.62
18713;BMP280;9485;49.386;8.674;2023-02-21T07:50:39;100886.09;;;8.94
18713;BMP280;9485;49.386;8.674;2023-02-21T07:56:01;100887.84;;;9.23
18713;BMP280;9485;49.386;8.674;2023-02-21T08:01:25;100886.78;;;9.53
18713;BMP280;9485;49.386;8.674;2023-02-21T08:06:46;100894.25;;;9.88
18713;BMP280;9485;49.386;8.674;2023-02-21T08:12:07;100893.28;;;10.52
18713;BMP280;9485;49.386;8.674;2023-02-21T08:17:29;100894.72;;;11.20
18713;BMP280;9485;49.386;8.674;2023-02-21T08:22:50;100889.03;;;11.63
18713;BMP280;9485;49.386;8.674;2023-02-21T08:28:12;100885.66;;;12.19
18713;BMP280;9485;49.386;8.674;2023-02-21T08:33:34;100892.44;;;12.72
18713;BMP280;9485;49.386;8.674;2023-02-21T08:38:55;100890.78;;;13.11
18713;BMP280;9485;49.386;8.674;2023-02-21T08:44:17;100891.75;;;13.75
18713;BMP280;9485;49.386;8.674;2023-02-21T08:49:43;100884.97;;;14.09
18713;BMP280;9485;49.386;8.674;2023-02-21T08:55:06;100883.88;;;14.48
18713;BMP280;9485;49.386;8.674;2023-02-21T09:00:27;100884.50;;;15.01
18713;BMP280;9485;49.386;8.674;2023-02-21T09:05:49;100885.53;;;15.20
18713;BMP280;9485;49.386;8.674;2023-02-21T09:11:10;100880.00;;;16.04
18713;BMP280;9485;49.386;8.674;2023-02-21T09:16:30;100876.97;;;17.23
18713;BMP280;9485;49.386;8.674;2023-02-21T09:21:52;100881.13;;;18.28
18713;BMP280;9485;49.386;8.674;2023-02-21T09:27:15;100886.34;;;19.34
18713;BMP280;9485;49.386;8.674;2023-02-21T09:32:37;100889.31;;;20.50
18713;BMP280;9485;49.386;8.674;2023-02-21T09:38:00;100885.97;;;21.39
18713;BMP280;9485;49.386;8.674;2023-02-21T09:43:30;100880.47;;;21.89
18713;BMP280;9485;49.386;8.674;2023-02-21T09:48:53;100877.13;;;22.05
18713;BMP280;9485;49.386;8.674;2023-02-21T09:54:23;100863.25;;;23.02
18713;BMP280;9485;49.386;8.674;2023-02-21T09:59:47;100870.00;;;23.35
18713;BMP280;9485;49.386;8.674;2023-02-21T10:05:20;100875.81;;;23.87
18713;BMP280;9485;49.386;8.674;2023-02-21T10:10:52;100872.75;;;23.92
18713;BMP280;9485;49.386;8.674;2023-02-21T10:16:21;100872.69;;;24.15
18713;BMP280;9485;49.386;8.674;2023-02-21T10:21:48;100873.66;;;24.24
18713;BMP280;9485;49.386;8.674;2023-02-21T10:27:16;100859.41;;;24.19
18713;BMP280;9485;49.386;8.674;2023-02-21T10:32:38;100860.22;;;23.60
18713;BMP280;9485;49.386;8.674;2023-02-21T10:38:02;100861.19;;;23.62
18713;BMP280;9485;49.386;8.674;2023-02-21T10:43:33;100857.53;;;23.47
18713;BMP280;9485;49.386;8.674;2023-02-21T10:49:16;100851.41;;;23.88
18713;BMP280;9485;49.386;8.674;2023-02-21T10:54:39;100845.53;;;24.32
18713;BMP280;9485;49.386;8.674;2023-02-21T11:00:01;100849.06;;;24.70
18713;BMP280;9485;49.386;8.674;2023-02-21T11:05:28;100843.53;;;24.57
18713;BMP280;9485;49.386;8.674;2023-02-21T11:10:54;100832.63;;;24.48
18713;BMP280;9485;49.386;8.674;2023-02-21T11:16:18;100824.28;;;23.91
18713;BMP280;9485;49.386;8.674;2023-02-21T11:21:41;100816.53;;;22.96
18713;BMP280;9485;49.386;8.674;2023-02-21T11:27:05;100806.63;;;22.47
18713;BMP280;9485;49.386;8.674;2023-02-21T11:32:32;100788.34;;;22.02
18713;BMP280;9485;49.386;8.674;2023-02-21T11:37:57;100779.38;;;22.13
18713;BMP280;9485;49.386;8.674;2023-02-21T11:43:23;100774.91;;;21.97
18713;BMP280;9485;49.386;8.674;2023-02-21T11:48:57;100761.72;;;21.46
18713;BMP280;9485;49.386;8.674;2023-02-21T11:54:22;100747.84;;;21.92
18713;BMP280;9485;49.386;8.674;2023-02-21T11:59:56;100748.22;;;21.89
18713;BMP280;9485;49.386;8.674;2023-02-21T12:05:52;100736.31;;;22.28
18713;BMP280;9485;49.386;8.674;2023-02-21T12:11:43;100734.97;;;21.86
18713;BMP280;9485;49.386;8.674;2023-02-21T12:17:47;100713.66;;;22.17
18713;BMP280;9485;49.386;8.674;2023-02-21T12:23:18;100705.75;;;22.75
18713;BMP280;9485;49.386;8.674;2023-02-21T12:29:02;100694.16;;;23.64
18713;BMP280;9485;49.386;8.674;2023-02-21T12:34:39;100688.53;;;23.89
18713;BMP280;9485;49.386;8.674;2023-02-21T12:40:19;100677.88;;;24.45
18713;BMP280;9485;49.386;8.674;2023-02-21T12:45:55;100676.03;;;24.65
18713;BMP280;9485;49.386;8.674;2023-02-21T12:51:24;100654.97;;;24.96
18713;BMP280;9485;49.386;8.674;2023-02-21T12:56:53;100658.22;;;25.00
18713;BMP280;9485;49.386;8.674;2023-02-21T13:02:26;100636.53;;;25.33
18713;BMP280;9485;49.386;8.674;2023-02-21T13:07:56;100634.00;;;25.37
18713;BMP280;9485;49.386;8.674;2023-02-21T13:13:25;100625.50;;;25.39
18713;BMP280;9485;49.386;8.674;2023-02-21T13:18:51;100633.38;;;25.21
18713;BMP280;9485;49.386;8.674;2023-02-21T13:24:37;100617.16;;;25.01
18713;BMP280;9485;49.386;8.674;2023-02-21T13:30:14;100610.72;;;24.94
18713;BMP280;9485;49.386;8.674;2023-02-21T13:35:38;100608.47;;;24.85
18713;BMP280;9485;49.386;8.674;2023-02-21T13:41:06;100592.16;;;24.80
18713;BMP280;9485;49.386;8.674;2023-02-21T13:47:03;100585.56;;;24.38
18713;BMP280;9485;49.386;8.674;2023-02-21T13:52:50;100561.78;;;23.98
18713;BMP280;9485;49.386;8.674;2023-02-21T13:58:34;100560.06;;;23.48
18713;BMP280;9485;49.386;8.674;2023-02-21T14:03:56;100545.06;;;22.96
18713;BMP280;9485;49.386;8.674;2023-02-21T14:09:17;100543.97;;;22.69
18713;BMP280;9485;49.386;8.674;2023-02-21T14:14:39;100529.97;;;22.51
18713;BMP280;9485;49.386;8.674;2023-02-21T14:20:03;100540.91;;;22.45
18713;BMP280;9485;49.386;8.674;2023-02-21T14:25:25;100530.00;;;22.43
18713;BMP280;9485;49.386;8.674;2023-02-21T14:30:46;100518.44;;;22.21
18713;BMP280;9485;49.386;8.674;2023-02-21T14:36:10;100503.81;;;21.82
18713;BMP280;9485;49.386;8.674;2023-02-21T14:41:52;100519.09;;;21.62
18713;BMP280;9485;49.386;8.674;2023-02-21T14:47:40;100513.06;;;21.37
18713;BMP280;9485;49.386;8.674;2023-02-21T14:53:45;100508.25;;;21.32
18713;BMP280;9485;49.386;8.674;2023-02-21T14:59:57;100503.25;;;21.25
18713;BMP280;9485;49.386;8.674;2023-02-21T15:05:27;100501.16;;;21.26
18713;BMP280;9485;49.386;8.674;2023-02-21T15:10:53;100491.19;;;21.19
18713;BMP280;9485;49.386;8.674;2023-02-21T15:16:16;100489.78;;;21.06
18713;BMP280;9485;49.386;8.674;2023-02-21T15:21:37;100477.50;;;20.98
18713;BMP280;9485;49.386;8.674;2023-02-21T15:27:10;100468.28;;;20.92
18713;BMP280;9485;49.386;8.674;2023-02-21T15:32:32;100468.78;;;20.83
18713;BMP280;9485;49.386;8.674;2023-02-21T15:37:56;100468.03;;;20.82
18713;BMP280;9485;49.386;8.674;2023-02-21T15:43:32;100456.09;;;20.71
18713;BMP280;9485;49.386;8.674;2023-02-21T15:48:59;100455.78;;;20.82
18713;BMP280;9485;49.386;8.674;2023-02-21T15:54:27;100443.69;;;20.76
18713;BMP280;9485;49.386;8.674;2023-02-21T16:00:16;100440.81;;;20.76
18713;BMP280;9485;49.386;8.674;2023-02-21T16:05:36;100441.88;;;20.58
18713;BMP280;9485;49.386;8.674;2023-02-21T16:11:01;100446.44;;;20.26
18713;BMP280;9485;49.386;8.674;2023-02-21T16:16:23;100442.81;;;19.84
18713;BMP280;9485;49.386;8.674;2023-02-21T16:21:44;100437.75;;;19.37
18713;BMP280;9485;49.386;8.674;2023-02-21T16:27:09;100438.53;;;18.91
18713;BMP280;9485;49.386;8.674;2023-02-21T16:32:32;100436.06;;;18.49
18713;BMP280;9485;49.386;8.674;2023-02-21T16:37:56;100432.38;;;18.09
18713;BMP280;9485;49.386;8.674;2023-02-21T16:43:20;100437.47;;;17.72
18713;BMP280;9485;49.386;8.674;2023-02-21T16:48:42;100436.03;;;17.34
18713;BMP280;9485;49.386;8.674;2023-02-21T16:54:03;100436.28;;;17.00
18713;BMP280;9485;49.386;8.674;2023-02-21T16:59:24;100430.25;;;16.66
18713;BMP280;9485;49.386;8.674;2023-02-21T17:04:46;100436.38;;;16.34
18713;BMP280;9485;49.386;8.674;2023-02-21T17:10:08;100435.63;;;16.04
18713;BMP280;9485;49.386;8.674;2023-02-21T17:15:29;100436.44;;;15.75
18713;BMP280;9485;49.386;8.674;2023-02-21T17:20:51;100433.81;;;15.48
18713;BMP280;9485;49.386;8.674;2023-02-21T17:26:12;100440.19;;;15.24
18713;BMP280;9485;49.386;8.674;2023-02-21T17:31:32;100447.31;;;15.01
18713;BMP280;9485;49.386;8.674;2023-02-21T17:36:54;100443.56;;;14.77
18713;BMP280;9485;49.386;8.674;2023-02-21T17:42:15;100444.44;;;14.56
18713;BMP280;9485;49.386;8.674;2023-02-21T17:47:36;100447.38;;;14.34
18713;BMP280;9485;49.386;8.674;2023-02-21T17:52:58;100456.47;;;14.16
18713;BMP280;9485;49.386;8.674;2023-02-21T17:58:19;100439.72;;;13.96
18713;BMP280;9485;49.386;8.674;2023-02-21T18:03:39;100450.03;;;13.77
18713;BMP280;9485;49.386;8.674;2023-02-21T18:09:02;100452.91;;;13.61
18713;BMP280;9485;49.386;8.674;2023-02-21T18:14:26;100457.28;;;13.46
18713;BMP280;9485;49.386;8.674;2023-02-21T18:19:48;100446.69;;;13.30
18713;BMP280;9485;49.386;8.674;2023-02-21T18:25:11;100439.72;;;13.14
18713;BMP280;9485;49.386;8.674;2023-02-21T18:30:33;100445.63;;;13.00
18713;BMP280;9485;49.386;8.674;2023-02-21T18:35:54;100436.03;;;12.86
18713;BMP280;9485;49.386;8.674;2023-02-21T18:41:19;100419.25;;;12.72
18713;BMP280;9485;49.386;8.674;2023-02-21T18:46:48;100419.97;;;12.56
18713;BMP280;9485;49.386;8.674;2023-02-21T18:52:09;100414.25;;;12.40
18713;BMP280;9485;49.386;8.674;2023-02-21T18:57:32;100414.97;;;12.24
18713;BMP280;9485;49.386;8.674;2023-02-21T19:02:52;100419.03;;;12.12
18713;BMP280;9485;49.386;8.674;2023-02-21T19:08:13;100409.41;;;11.98
18713;BMP280;9485;49.386;8.674;2023-02-21T19:13:35;100413.25;;;11.96
18713;BMP280;9485;49.386;8.674;2023-02-21T19:18:57;100398.00;;;11.82
18713;BMP280;9485;49.386;8.674;2023-02-21T19:24:17;100406.22;;;11.80
18713;BMP280;9485;49.386;8.674;2023-02-21T19:29:39;100406.91;;;11.70
18713;BMP280;9485;49.386;8.674;2023-02-21T19:35:00;100399.38;;;11.56
18713;BMP280;9485;49.386;8.674;2023-02-21T19:40:21;100417.56;;;11.49
18713;BMP280;9485;49.386;8.674;2023-02-21T19:45:49;100418.97;;;11.34
18713;BMP280;9485;49.386;8.674;2023-02-21T19:51:13;100422.75;;;11.25
18713;BMP280;9485;49.386;8.674;2023-02-21T19:56:34;100431.41;;;11.17
18713;BMP280;9485;49.386;8.674;2023-02-21T20:01:56;100425.44;;;11.09
18713;BMP280;9485;49.386;8.674;2023-02-21T20:07:18;100426.09;;;10.99
18713;BMP280;9485;49.386;8.674;2023-02-21T20:12:40;100418.28;;;10.88
18713;BMP280;9485;49.386;8.674;2023-02-21T20:18:03;100417.41;;;10.77
18713;BMP280;9485;49.386;8.674;2023-02-21T20:23:23;100421.31;;;10.59
18713;BMP280;9485;49.386;8.674;2023-02-21T20:28:46;100433.66;;;10.62
18713;BMP280;9485;49.386;8.674;2023-02-21T20:34:09;100435.34;;;10.54
18713;BMP280;9485;49.386;8.674;2023-02-21T20:39:30;100436.28;;;10.46
18713;BMP280;9485;49.386;8.674;2023-02-21T20:44:51;100439.25;;;10.37
18713;BMP280;9485;49.386;8.674;2023-02-21T20:50:19;100427.53;;;10.24
18713;BMP280;9485;49.386;8.674;2023-02-21T20:55:40;100436.72;;;10.19
18713;BMP280;9485;49.386;8.674;2023-02-21T21:01:01;100442.00;;;10.11
18713;BMP280;9485;49.386;8.674;2023-02-21T21:06:24;100443.19;;;10.05
18713;BMP280;9485;49.386;8.674;2023-02-21T21:11:45;100435.03;;;9.92
18713;BMP280;9485;49.386;8.674;2023-02-21T21:17:06;100444.97;;;9.88
18713;BMP280;9485;49.386;8.674;2023-02-21T21:22:28;100445.09;;;9.79
18713;BMP280;9485;49.386;8.674;2023-02-21T21:27:49;100443.66;;;9.69
18713;BMP280;9485;49.386;8.674;2023-02-21T21:33:10;100436.59;;;9.59
18713;BMP280;9485;49.386;8.674;2023-02-21T21:38:32;100446.31;;;9.58
18713;BMP280;9485;49.386;8.674;2023-02-21T21:43:57;100444.88;;;9.48
18713;BMP280;9485;49.386;8.674;2023-02-21T21:49:21;100435.25;;;9.40
18713;BMP280;9485;49.386;8.674;2023-02-21T21:54:46;100434.41;;;9.34
18713;BMP280;9485;49.386;8.674;2023-02-21T22:00:12;100428.97;;;9.31
18713;BMP280;9485;49.386;8.674;2023-02-21T22:05:58;100422.16;;;9.23
18713;BMP280;9485;49.386;8.674;2023-02-21T22:11:20;100415.16;;;9.18
18713;BMP280;9485;49.386;8.674;2023-02-21T22:16:43;100406.91;;;9.15
18713;BMP280;9485;49.386;8.674;2023-02-21T22:22:04;100404.78;;;9.10
18713;BMP280;9485;49.386;8.674;2023-02-21T22:27:27;100399.25;;;9.01
18713;BMP280;9485;49.386;8.674;2023-02-21T22:32:48;100388.56;;;8.91
18713;BMP280;9485;49.386;8.674;2023-02-21T22:38:09;100396.72;;;8.89
18713;BMP280;9485;49.386;8.674;2023-02-21T22:43:34;100382.56;;;8.83
18713;BMP280;9485;49.386;8.674;2023-02-21T22:48:55;100374.13;;;8.83
18713;BMP280;9485;49.386;8.674;2023-02-21T22:54:17;100377.13;;;8.80
18713;BMP280;9485;49.386;8.674;2023-02-21T22:59:42;100362.84;;;8.69
18713;BMP280;9485;49.386;8.674;2023-02-21T23:05:04;100373.34;;;8.68
18713;BMP280;9485;49.386;8.674;2023-02-21T23:10:27;100374.97;;;8.60
18713;BMP280;9485;49.386;8.674;2023-02-21T23:15:50;100373.59;;;8.56
18713;BMP280;9485;49.386;8.674;2023-02-21T23:21:13;100367.78;;;8.45
18713;BMP280;9485;49.386;8.674;2023-02-21T23:26:41;100374.84;;;8.40
18713;BMP280;9485;49.386;8.674;2023-02-21T23:32:04;100366.59;;;8.37
18713;BMP280;9485;49.386;8.674;2023-02-21T23:37:28;100371.16;;;8.34
18713;BMP280;9485;49.386;8.674;2023-02-21T23:42:52;100359.31;;;8.30
18713;BMP280;9485;49.386;8.674;2023-02-21T23:48:15;100357.94;;;8.26
18713;BMP280;9485;49.386;8.674;2023-02-21T23:53:36;100353.78;;;8.22
18713;BMP280;9485;49.386;8.674;2023-02-21T23:58:57;100345.03;;;8.20
